Dalton, WI

10:45 PM CDT on September 04, 2015 (GMT -0500)
APRSWXNET | | Change Station
CLOSE
Current Station
Personal Weather Station
Location: Cambria, WI
Elevation: 944 ft
Nearby Weather Stations

Elev 944 ft 43.54 °N, 89.11 °W | Updated 15 minutes ago

Clear
Clear
70 °F
Feels Like 70 °F
N
2
Wind Variable Wind from SE
Gusts 4.0 mph

Today
High -- | Low -- °F
--% Chance of Precip.
Yesterday
High -- | Low -- °F
Precip. -- in
6:23 AM 7:27 PM
Waning Gibbous, 53% visible
Pressure 30.05 in
Visibility 8.0 miles
Clouds Clear
Dew Point 66 °F
Humidity 87%
Rainfall in
Snow Depth Not available.
UV 0 out of 12
Pollen 9.60 out of 12
Air Quality Not available.
Flu Activity Not available.
METAR KY50 050256Z AUTO 00000KT 8SM CLR 19/19 A3006 RMK AO2 TSNO 51010 T01940194 SLP174
Pressure 30.05 in
Visibility 8.0 miles
Clouds Clear
Dew Point 66 °F
Humidity 87%
Rainfall in
Snow Depth Not available.
UV 0 out of 12
Pollen 9.60 out of 12
Air Quality Not available.
Flu Activity Not available.
METAR KY50 050256Z AUTO 00000KT 8SM CLR 19/19 A3006 RMK AO2 TSNO 51010 T01940194 SLP174

10-Day Weather Forecast

×

Almanac

Astronomy

Sep. 04, 2015 Rise Set
Actual Time
Civil Twilight
Nautical Twilight
Astronomical Twilight
Moon
Length of Visible Light
Length of Day
Tomorrow will be .
, % of the Moon is Illuminated

Today's Extremes

State Highs State Lows

Community

WunderPhotos

Upload Photos

1,852,408 photos uploaded!

WunderBlogs® & News

Nearby

Air Quality

  Air Quality AQ Index Pollutant
Not available.

Snow Depth

Station Depth Elevation

Earthquake Activity

City Distance Mag. Time & Date
Minimum magnitude displayed is 2.5.

Coastal Water Temperatures

Place Temperature

Stations

Nearby Weather Stations

Station Location Temp. Windchill Dew Point Humidity Wind Precip. Elev Updated Type